To NAV CANADA Home Page Login to a new session Search on AWWS site Feedback and Comments Disclaimer Vers la page française équivalente Tips FAQ What's new on the site To the Forecasts and Observations / NOTAM section To "File a Flight Plan" website Publications and other links Update of the User's profile FIC Telephone Numbers My Weather Data Folder Route Weather Data Regional Weather Data Local Weather Data To the Forecasts and Observations / NOTAM section
Request Generated 08/02/2015 at 22:21:42 UTC . Weather information available at that time is displayed.

METAR/TAF

RED DEER/RED DEER REGIONAL/AB    

METAR CYQF 022200Z 18007KT 15SM FEW044 BKN250 25/14 A2997 RMK CU1CI5
SLP147 DENSITY ALT 4700FT=
METAR CYQF 022100Z 15012KT 15SM FEW044 BKN250 25/14 A2999 RMK CU1CI5
SLP153 DENSITY ALT 4600FT=
METAR CYQF 022000Z 15011G16KT 110V190 15SM FEW040 SCT250 24/13 A3000
RMK CU2CI2 SLP158 DENSITY ALT 4500FT=

TAF CYQF 021738Z 0218/0306 16015KT P6SM FEW050
FM030300 12010KT P6SM SCT150
RMK NXT FCST BY 030000Z=
Your time UTC time
Weather data provided by Environment Canada and NAV CANADA